createdAt,value
2019-04-11T00:00:37.721Z,62.40
2019-04-11T00:03:04.942Z,62.30
2019-04-11T00:05:31.244Z,62.20
2019-04-11T00:07:59.673Z,62.30
2019-04-11T00:10:26.036Z,61.80
2019-04-11T00:12:52.222Z,61.90
2019-04-11T00:15:18.375Z,62.60
2019-04-11T00:17:44.559Z,62.60
2019-04-11T00:20:11.832Z,62.90
2019-04-11T00:22:38.067Z,62.90
2019-04-11T00:25:04.566Z,62.90
2019-04-11T00:27:30.629Z,62.90
2019-04-11T00:29:56.795Z,62.90
2019-04-11T00:32:22.856Z,62.90
2019-04-11T00:34:49.046Z,62.90
2019-04-11T00:37:15.263Z,62.70
2019-04-11T00:39:41.315Z,63.00
2019-04-11T00:42:07.367Z,63.10
2019-04-11T00:44:34.678Z,63.20
2019-04-11T00:47:00.991Z,62.50
2019-04-11T00:49:27.211Z,63.10
2019-04-11T00:51:53.427Z,63.10
2019-04-11T00:54:19.520Z,63.00
2019-04-11T00:56:45.659Z,63.10
2019-04-11T00:59:11.711Z,63.00
2019-04-11T01:01:37.783Z,62.90
2019-04-11T01:04:03.964Z,62.80
2019-04-11T01:08:56.515Z,62.20
2019-04-11T01:11:23.665Z,62.50
2019-04-11T01:13:53.475Z,61.70
2019-04-11T01:16:28.567Z,61.80
2019-04-11T01:18:54.630Z,62.00
2019-04-11T01:21:20.719Z,62.40
2019-04-11T01:23:47.058Z,62.30
2019-04-11T01:26:13.275Z,62.30
2019-04-11T01:28:39.336Z,62.40
2019-04-11T01:31:09.881Z,62.30
2019-04-11T01:33:36.028Z,62.20
2019-04-11T01:36:02.723Z,62.10
2019-04-11T01:38:30.464Z,62.00
2019-04-11T01:40:56.757Z,62.00
2019-04-11T01:43:24.005Z,62.10
2019-04-11T01:45:50.255Z,61.40
2019-04-11T01:48:19.503Z,62.10
2019-04-11T01:50:45.779Z,61.50
2019-04-11T01:53:12.972Z,61.80
2019-04-11T01:55:39.170Z,61.70
2019-04-11T01:58:05.220Z,61.60
2019-04-11T02:00:45.501Z,62.20
2019-04-11T02:03:13.469Z,60.90
2019-04-11T02:05:39.530Z,59.90
2019-04-11T02:08:05.609Z,59.50
2019-04-11T02:10:32.754Z,59.40
2019-04-11T02:12:59.658Z,59.30
2019-04-11T02:15:26.830Z,58.40
2019-04-11T02:17:52.973Z,58.80
2019-04-11T02:20:19.123Z,58.70
2019-04-11T02:22:50.695Z,58.60
2019-04-11T02:25:36.853Z,57.90
2019-04-11T02:28:04.675Z,57.80
2019-04-11T02:30:31.540Z,58.10
2019-04-11T02:32:58.279Z,58.20
2019-04-11T02:35:24.553Z,58.40
2019-04-11T02:37:52.060Z,58.20
2019-04-11T02:40:20.075Z,57.60
2019-04-11T02:42:47.589Z,57.50
2019-04-11T02:45:27.241Z,57.50
2019-04-11T02:47:44.488Z,57.50
2019-04-11T02:50:12.397Z,56.90
2019-04-11T02:52:39.941Z,58.00
2019-04-11T02:55:07.839Z,58.10
2019-04-11T02:57:34.414Z,58.20
2019-04-11T03:00:02.061Z,58.20
2019-04-11T03:02:28.479Z,58.30
2019-04-11T03:04:55.658Z,58.40
2019-04-11T03:07:22.800Z,58.00
2019-04-11T03:09:51.066Z,58.10
2019-04-11T03:12:19.122Z,58.70
2019-04-11T03:15:04.302Z,58.80
2019-04-11T03:17:20.670Z,58.80
2019-04-11T03:19:53.710Z,58.90
2019-04-11T03:22:09.946Z,59.00
2019-04-11T03:24:38.388Z,59.00
2019-04-11T03:27:07.078Z,58.60
2019-04-11T03:29:35.172Z,59.20
2019-04-11T03:37:23.548Z,59.60
2019-04-11T03:39:43.875Z,59.70
2019-04-11T03:42:13.009Z,59.80
2019-04-11T03:44:25.458Z,59.80
2019-04-11T03:47:06.912Z,59.50
2019-04-11T03:49:28.195Z,60.00
2019-04-11T03:51:47.925Z,60.10
2019-04-11T03:54:14.277Z,60.40
2019-04-11T03:56:43.307Z,60.70
2019-04-11T03:59:12.445Z,60.80
2019-04-11T04:01:38.183Z,60.30
2019-04-11T04:04:06.415Z,61.10
2019-04-11T04:06:33.123Z,61.30
2019-04-11T04:09:00.737Z,60.90
2019-04-11T04:11:29.889Z,60.90
2019-04-11T04:14:15.468Z,61.00
2019-04-11T04:17:03.817Z,61.10
2019-04-11T04:19:37.667Z,61.70
2019-04-11T04:22:17.855Z,62.60
2019-04-11T04:24:45.526Z,62.30
2019-04-11T04:27:13.233Z,63.40
2019-04-11T04:29:41.146Z,63.20
2019-04-11T04:32:08.490Z,63.80
2019-04-11T04:34:36.054Z,64.60
2019-04-11T04:37:03.615Z,65.10
2019-04-11T04:39:31.385Z,65.20
2019-04-11T04:42:06.043Z,65.40
2019-04-11T04:44:26.485Z,66.00
2019-04-11T04:47:07.747Z,66.10
2019-04-11T04:49:21.307Z,66.30
2019-04-11T04:51:47.850Z,66.40
2019-04-11T04:54:14.258Z,66.60
2019-04-11T04:56:41.949Z,67.00
2019-04-11T04:59:10.047Z,67.10
2019-04-11T05:01:37.360Z,67.50
2019-04-11T05:04:04.765Z,67.90
2019-04-11T05:06:32.323Z,68.40
2019-04-11T05:09:00.047Z,69.10
2019-04-11T05:11:26.536Z,69.40
2019-04-11T05:13:54.306Z,69.80
2019-04-11T05:18:48.373Z,69.40
2019-04-11T05:21:14.675Z,69.70
2019-04-11T05:23:41.759Z,68.30
2019-04-11T05:26:08.895Z,68.40
2019-04-11T05:28:35.312Z,69.00
2019-04-11T05:31:02.562Z,68.10
2019-04-11T05:33:29.397Z,67.50
2019-04-11T05:35:56.379Z,66.40
2019-04-11T05:38:23.077Z,67.10
2019-04-11T05:40:50.333Z,66.00
2019-04-11T05:43:16.695Z,65.00
2019-04-11T05:45:42.831Z,65.20
2019-04-11T05:48:28.333Z,64.60
2019-04-11T05:50:54.763Z,63.90
2019-04-11T05:53:21.418Z,64.60
2019-04-11T05:55:48.221Z,64.40
2019-04-11T05:58:15.999Z,64.30
2019-04-11T06:00:46.683Z,64.30
2019-04-11T06:03:13.408Z,63.90
2019-04-11T06:05:43.142Z,64.20
2019-04-11T06:08:12.575Z,63.80
2019-04-11T06:10:50.476Z,64.60
2019-04-11T06:13:18.636Z,63.90
2019-04-11T06:15:53.531Z,64.40
2019-04-11T06:18:31.095Z,65.60
2019-04-11T06:21:09.568Z,64.50
2019-04-11T06:23:37.630Z,64.50
2019-04-11T06:26:21.302Z,64.70
2019-04-11T06:28:49.500Z,65.40
2019-04-11T06:31:18.117Z,65.30
2019-04-11T06:33:46.972Z,65.50
2019-04-11T06:36:21.085Z,64.90
2019-04-11T06:38:49.329Z,64.90
2019-04-11T06:41:20.020Z,64.70
2019-04-11T06:44:00.520Z,64.70
2019-04-11T06:46:53.913Z,64.20
2019-04-11T06:49:18.324Z,64.10
2019-04-11T06:51:46.470Z,64.00
2019-04-11T06:54:17.229Z,65.00
2019-04-11T06:56:45.523Z,65.10
2019-04-11T06:59:14.379Z,64.00
2019-04-11T07:01:42.626Z,63.30
2019-04-11T07:04:16.316Z,63.80
2019-04-11T07:06:44.377Z,62.20
2019-04-11T07:09:30.846Z,61.90
2019-04-11T07:11:59.282Z,61.40
2019-04-11T07:14:43.318Z,61.50
2019-04-11T07:17:27.927Z,61.70
2019-04-11T07:20:04.768Z,61.80
2019-04-11T07:22:49.607Z,62.20
2019-04-11T07:25:26.870Z,62.00
2019-04-11T07:28:11.531Z,60.00
2019-04-11T07:30:56.299Z,59.20
2019-04-11T07:33:31.291Z,59.40
2019-04-11T07:36:16.429Z,59.30
2019-04-11T07:39:03.233Z,59.50
2019-04-11T07:41:38.557Z,58.90
2019-04-11T07:44:08.504Z,58.60
2019-04-11T07:46:53.708Z,59.20
2019-04-11T07:49:34.960Z,57.20
2019-04-11T07:52:09.018Z,57.00
2019-04-11T07:54:36.953Z,55.60
2019-04-11T07:57:11.493Z,53.60
2019-04-11T07:59:46.724Z,53.40
2019-04-11T08:02:31.405Z,51.70
2019-04-11T08:04:59.390Z,50.20
2019-04-11T08:07:40.405Z,50.70
2019-04-11T08:10:15.966Z,50.20
2019-04-11T08:15:11.790Z,47.80
2019-04-11T08:17:42.523Z,47.00
2019-04-11T08:20:26.704Z,46.70
2019-04-11T08:22:55.078Z,46.10
2019-04-11T08:25:23.271Z,44.50
2019-04-11T08:28:05.896Z,45.50
2019-04-11T08:30:48.882Z,45.30
2019-04-11T08:33:16.607Z,45.40
2019-04-11T08:35:53.448Z,44.90
2019-04-11T08:38:20.823Z,45.10
2019-04-11T08:40:55.490Z,45.60
2019-04-11T08:43:26.909Z,45.40
2019-04-11T08:45:56.200Z,45.00
2019-04-11T08:48:24.589Z,44.70
2019-04-11T08:51:05.159Z,45.10
2019-04-11T08:53:51.115Z,46.10
2019-04-11T08:56:19.052Z,45.70
2019-04-11T08:59:11.378Z,45.80
2019-04-11T09:01:38.116Z,46.20
2019-04-11T09:04:10.181Z,44.80
2019-04-11T09:06:35.125Z,44.10
2019-04-11T09:09:09.182Z,44.70
2019-04-11T09:11:39.128Z,44.80
2019-04-11T09:14:24.306Z,45.10
2019-04-11T09:16:56.217Z,44.60
2019-04-11T09:19:30.671Z,43.80
2019-04-11T09:22:11.054Z,43.50
2019-04-11T09:27:24.794Z,42.90
2019-04-11T09:29:52.923Z,41.30
2019-04-11T09:32:26.984Z,39.80
2019-04-11T09:34:54.934Z,39.20
2019-04-11T09:37:22.076Z,38.10
2019-04-11T09:39:53.153Z,37.80
2019-04-11T09:42:24.063Z,36.70
2019-04-11T09:44:53.050Z,35.50
2019-04-11T09:47:28.240Z,35.10
2019-04-11T09:49:56.307Z,34.70
2019-04-11T09:52:33.395Z,33.50
2019-04-11T09:55:01.375Z,34.50
2019-04-11T09:57:32.495Z,34.10
2019-04-11T10:00:16.440Z,34.30
2019-04-11T10:02:44.720Z,34.80
2019-04-11T10:05:13.698Z,36.30
2019-04-11T10:07:58.583Z,36.80
2019-04-11T10:10:33.102Z,37.10
2019-04-11T10:13:16.362Z,37.80
2019-04-11T10:15:51.533Z,39.00
2019-04-11T10:18:27.994Z,38.40
2019-04-11T10:20:52.929Z,38.70
2019-04-11T10:23:21.124Z,38.10
2019-04-11T10:25:47.686Z,37.90
2019-04-11T10:28:33.471Z,37.90
2019-04-11T10:31:08.663Z,37.80
2019-04-11T10:33:46.891Z,37.20
2019-04-11T10:36:18.867Z,37.90
2019-04-11T10:38:45.335Z,36.60
2019-04-11T10:41:25.259Z,35.40
2019-04-11T10:43:51.667Z,36.10
2019-04-11T10:46:19.835Z,35.60
2019-04-11T10:48:50.490Z,35.40
2019-04-11T10:51:35.850Z,34.90
2019-04-11T10:54:04.291Z,34.90
2019-04-11T10:56:47.567Z,33.90
2019-04-11T10:59:14.034Z,32.10
2019-04-11T11:01:53.822Z,32.50
2019-04-11T11:04:21.784Z,33.20
2019-04-11T11:06:49.752Z,32.40
2019-04-11T11:09:26.732Z,31.80
2019-04-11T11:11:54.858Z,32.10
2019-04-11T11:14:25.447Z,32.80
2019-04-11T11:16:53.412Z,31.10
2019-04-11T11:19:44.245Z,30.40
2019-04-11T11:21:59.879Z,31.20
2019-04-11T11:24:28.143Z,31.80
2019-04-11T11:26:56.719Z,32.60
2019-04-11T11:29:30.099Z,33.20
2019-04-11T11:31:58.052Z,34.20
2019-04-11T11:34:26.188Z,35.40
2019-04-11T11:36:55.063Z,36.10
2019-04-11T11:39:33.400Z,36.10
2019-04-11T11:42:02.122Z,36.70
2019-04-11T11:44:39.327Z,37.40
2019-04-11T11:47:10.070Z,39.00
2019-04-11T11:49:45.866Z,39.10
2019-04-11T11:52:15.180Z,39.30
2019-04-11T11:54:43.888Z,39.80
2019-04-11T11:57:12.860Z,39.40
2019-04-11T11:59:48.216Z,39.80
2019-04-11T12:02:22.985Z,40.20
2019-04-11T12:04:57.008Z,40.60
2019-04-11T12:07:25.213Z,41.00
2019-04-11T12:09:55.732Z,40.70
2019-04-11T12:12:29.703Z,41.20
2019-04-11T12:15:07.746Z,40.60
2019-04-11T12:17:52.691Z,40.20
2019-04-11T12:20:23.449Z,40.30
2019-04-11T12:22:51.023Z,40.90
2019-04-11T12:25:19.395Z,41.20
2019-04-11T12:27:47.368Z,40.90
2019-04-11T12:30:15.688Z,40.50
2019-04-11T12:32:44.410Z,39.80
2019-04-11T12:35:13.596Z,38.40
2019-04-11T12:40:34.447Z,36.50
2019-04-11T12:43:02.404Z,36.30
2019-04-11T12:45:33.171Z,36.00
2019-04-11T12:47:59.349Z,36.30
2019-04-11T12:50:44.095Z,36.60
2019-04-11T12:53:10.171Z,35.50
2019-04-11T12:55:49.904Z,35.00
2019-04-11T12:58:23.680Z,34.90
2019-04-11T13:00:57.586Z,34.90
2019-04-11T13:03:28.672Z,34.00
2019-04-11T13:06:13.001Z,33.90
2019-04-11T13:08:57.633Z,34.30
2019-04-11T13:11:25.607Z,35.50
2019-04-11T13:14:12.157Z,35.80
2019-04-11T13:16:39.956Z,35.60
2019-04-11T13:19:23.027Z,37.00
2019-04-11T13:21:50.995Z,37.00
2019-04-11T13:24:24.759Z,37.20
2019-04-11T13:27:10.743Z,38.10
2019-04-11T13:29:44.572Z,38.60
2019-04-11T13:32:21.223Z,39.00
2019-04-11T13:34:49.263Z,39.50
2019-04-11T13:37:23.057Z,39.10
2019-04-11T13:39:53.595Z,39.00
2019-04-11T13:42:38.317Z,39.00
2019-04-11T13:45:06.300Z,39.00
2019-04-11T13:47:38.414Z,39.40
2019-04-11T13:50:16.152Z,39.00
2019-04-11T13:52:51.655Z,39.70
2019-04-11T13:55:19.719Z,40.00
2019-04-11T13:58:04.635Z,40.20
2019-04-11T14:00:38.443Z,39.90
2019-04-11T14:03:24.629Z,40.30
2019-04-11T14:05:50.687Z,40.90
2019-04-11T14:08:24.496Z,41.40
2019-04-11T14:10:59.726Z,41.40
2019-04-11T14:13:28.387Z,40.40
2019-04-11T14:16:11.272Z,39.70
2019-04-11T14:18:56.312Z,39.50
2019-04-11T14:21:24.379Z,40.10
2019-04-11T14:23:55.243Z,40.60
2019-04-11T14:26:23.291Z,39.70
2019-04-11T14:28:50.748Z,39.00
2019-04-11T14:31:27.619Z,39.10
2019-04-11T14:33:56.124Z,38.90
2019-04-11T14:36:41.076Z,38.70
2019-04-11T14:39:09.147Z,39.10
2019-04-11T14:41:41.703Z,39.20
2019-04-11T14:44:07.762Z,39.00
2019-04-11T14:46:41.599Z,40.00
2019-04-11T14:49:10.132Z,39.60
2019-04-11T14:51:37.641Z,40.00
2019-04-11T14:54:08.323Z,40.30
2019-04-11T14:56:39.063Z,40.40
2019-04-11T14:59:25.036Z,41.00
2019-04-11T15:01:55.947Z,41.20
2019-04-11T15:04:24.019Z,41.40
2019-04-11T15:06:57.807Z,41.80
2019-04-11T15:09:46.491Z,41.70
2019-04-11T15:12:17.682Z,42.40
2019-04-11T15:14:47.528Z,42.60
2019-04-11T15:17:17.944Z,42.80
2019-04-11T15:19:45.905Z,43.30
2019-04-11T15:22:13.871Z,44.30
2019-04-11T15:24:41.831Z,45.20
2019-04-11T15:27:15.613Z,45.50
2019-04-11T15:29:45.724Z,45.70
2019-04-11T15:32:20.955Z,45.00
2019-04-11T15:34:48.459Z,45.00
2019-04-11T15:37:31.628Z,44.50
2019-04-11T15:39:59.587Z,44.10
2019-04-11T15:42:27.540Z,44.90
2019-04-11T15:44:55.563Z,44.40
2019-04-11T15:47:23.551Z,44.40
2019-04-11T15:49:51.601Z,44.20
2019-04-11T15:52:18.495Z,45.00
2019-04-11T15:54:49.456Z,45.50
2019-04-11T15:57:17.425Z,45.70
2019-04-11T15:59:45.379Z,45.50
2019-04-11T16:02:19.177Z,45.30
2019-04-11T16:04:47.136Z,44.70
2019-04-11T16:07:15.183Z,44.80
2019-04-11T16:09:43.257Z,44.70
2019-04-11T16:12:20.101Z,44.80
2019-04-11T16:15:05.151Z,45.10
2019-04-11T16:17:38.907Z,43.70
2019-04-11T16:20:07.495Z,43.60
2019-04-11T16:22:35.540Z,43.30
2019-04-11T16:25:04.730Z,44.20
2019-04-11T16:27:41.707Z,44.30
2019-04-11T16:30:10.226Z,44.20
2019-04-11T16:32:41.743Z,44.00
2019-04-11T16:35:09.730Z,44.10
2019-04-11T16:37:35.891Z,44.60
2019-04-11T16:40:23.654Z,44.50
2019-04-11T16:42:53.582Z,44.40
2019-04-11T16:45:28.923Z,45.30
2019-04-11T16:47:57.006Z,45.30
2019-04-11T16:50:23.107Z,45.70
2019-04-11T16:52:49.168Z,46.20
2019-04-11T16:55:15.219Z,46.70
2019-04-11T16:57:43.994Z,46.90
2019-04-11T17:00:10.440Z,47.40
2019-04-11T17:02:36.504Z,47.70
2019-04-11T17:05:05.799Z,48.00
2019-04-11T17:07:33.863Z,48.20
2019-04-11T17:10:01.712Z,48.60
2019-04-11T17:12:27.794Z,48.70
2019-04-11T17:14:53.879Z,48.90
2019-04-11T17:17:19.978Z,49.00
2019-04-11T17:19:46.107Z,49.30
2019-04-11T17:22:12.177Z,48.90
2019-04-11T17:24:38.366Z,49.50
2019-04-11T17:27:04.527Z,49.10
2019-04-11T17:29:30.580Z,49.80
2019-04-11T17:31:56.698Z,49.90
2019-04-11T17:34:22.887Z,49.80
2019-04-11T17:36:49.009Z,49.90
2019-04-11T17:39:15.067Z,50.10
2019-04-11T17:41:42.037Z,50.10
2019-04-11T17:44:09.011Z,49.90
2019-04-11T17:49:02.031Z,49.00
2019-04-11T17:51:28.176Z,49.00
2019-04-11T17:53:55.523Z,48.50
2019-04-11T17:56:24.707Z,47.90
2019-04-11T17:58:49.871Z,48.60
2019-04-11T18:01:16.033Z,49.00
2019-04-11T18:03:42.697Z,48.80
2019-04-11T18:06:08.946Z,49.00
2019-04-11T18:08:35.022Z,49.00
2019-04-11T18:11:01.155Z,48.60
2019-04-11T18:13:30.508Z,49.40
2019-04-11T18:15:55.207Z,49.10
2019-04-11T18:18:22.136Z,49.80
2019-04-11T18:20:48.272Z,50.10
2019-04-11T18:23:14.350Z,50.40
2019-04-11T18:25:40.540Z,50.60
2019-04-11T18:28:06.607Z,50.50
2019-04-11T18:30:32.728Z,50.60
2019-04-11T18:32:58.902Z,51.20
2019-04-11T18:35:25.051Z,50.20
2019-04-11T18:37:51.155Z,50.20
2019-04-11T18:40:20.884Z,49.60
2019-04-11T18:42:47.073Z,49.60
2019-04-11T18:45:14.536Z,50.30
2019-04-11T18:47:40.595Z,49.90
2019-04-11T18:50:07.455Z,50.50
2019-04-11T18:52:33.727Z,50.30
2019-04-11T18:54:59.807Z,50.00
2019-04-11T18:57:26.086Z,49.80
2019-04-11T18:59:52.137Z,49.90
2019-04-11T19:02:18.435Z,50.10
2019-04-11T19:04:44.589Z,48.10
2019-04-11T19:07:12.749Z,48.90
2019-04-11T19:09:38.937Z,48.70
2019-04-11T19:12:07.243Z,48.40
2019-04-11T19:14:33.372Z,48.50
2019-04-11T19:16:59.511Z,49.30
2019-04-11T19:19:27.443Z,49.20
2019-04-11T19:21:53.552Z,49.00
2019-04-11T19:24:19.599Z,49.20
2019-04-11T19:26:46.363Z,49.20
2019-04-11T19:29:13.093Z,48.70
2019-04-11T19:31:39.160Z,49.20
2019-04-11T19:34:08.646Z,49.20
2019-04-11T19:36:33.256Z,48.80
2019-04-11T19:39:01.168Z,49.40
2019-04-11T19:41:29.715Z,49.00
2019-04-11T19:43:55.861Z,49.20
2019-04-11T19:46:21.919Z,50.00
2019-04-11T19:48:47.978Z,49.80
2019-04-11T19:51:14.052Z,50.20
2019-04-11T19:53:40.106Z,50.10
2019-04-11T19:56:10.940Z,50.50
2019-04-11T19:58:37.082Z,50.60
2019-04-11T20:01:03.250Z,50.80
2019-04-11T20:03:31.687Z,51.00
2019-04-11T20:05:57.382Z,50.40
2019-04-11T20:08:23.430Z,51.10
2019-04-11T20:10:49.519Z,51.30
2019-04-11T20:13:15.574Z,51.40
2019-04-11T20:15:42.488Z,51.50
2019-04-11T20:18:09.302Z,51.10
2019-04-11T20:20:37.044Z,51.90
2019-04-11T20:23:05.097Z,52.30
2019-04-11T20:25:31.267Z,51.90
2019-04-11T20:27:57.626Z,52.00
2019-04-11T20:30:25.315Z,52.20
2019-04-11T20:32:51.840Z,51.80
2019-04-11T20:35:28.458Z,52.60
2019-04-11T20:37:45.898Z,52.20
2019-04-11T20:40:12.166Z,53.30
2019-04-11T20:42:38.804Z,53.00
2019-04-11T20:45:05.161Z,53.00
2019-04-11T20:47:31.226Z,53.10
2019-04-11T20:49:57.310Z,53.30
2019-04-11T20:52:23.375Z,53.30
2019-04-11T20:54:49.459Z,53.30
2019-04-11T20:57:25.149Z,53.30
2019-04-11T20:59:43.505Z,52.80
2019-04-11T21:02:09.583Z,53.60
2019-04-11T21:04:35.908Z,53.20
2019-04-11T21:07:02.590Z,53.90
2019-04-11T21:09:33.032Z,54.00
2019-04-11T21:11:56.787Z,53.30
2019-04-11T21:14:22.848Z,53.70
2019-04-11T21:16:48.895Z,53.20
2019-04-11T21:19:14.955Z,53.80
2019-04-11T21:21:41.007Z,53.70
2019-04-11T21:24:07.083Z,53.50
2019-04-11T21:26:33.132Z,53.90
2019-04-11T21:28:59.482Z,53.50
2019-04-11T21:31:25.735Z,53.30
2019-04-11T21:33:51.811Z,53.90
2019-04-11T21:36:17.858Z,54.10
2019-04-11T21:38:43.996Z,54.10
2019-04-11T21:41:10.049Z,54.00
2019-04-11T21:43:36.841Z,54.20
2019-04-11T21:46:04.085Z,54.40
2019-04-11T21:48:31.232Z,54.90
2019-04-11T21:50:57.285Z,54.90
2019-04-11T21:53:23.336Z,55.00
2019-04-11T21:55:49.403Z,55.10
2019-04-11T21:58:19.401Z,55.20
2019-04-11T22:00:47.219Z,55.20
2019-04-11T22:03:13.351Z,54.80
2019-04-11T22:05:39.403Z,55.30
2019-04-11T22:08:05.578Z,55.30
2019-04-11T22:10:31.732Z,55.30
2019-04-11T22:12:57.803Z,55.40
2019-04-11T22:15:23.859Z,55.60
2019-04-11T22:17:49.940Z,55.60
2019-04-11T22:20:16.753Z,55.80
2019-04-11T22:22:43.588Z,55.70
2019-04-11T22:25:09.667Z,55.30
2019-04-11T22:27:35.713Z,55.60
2019-04-11T22:30:04.771Z,55.70
2019-04-11T22:32:31.179Z,55.70
2019-04-11T22:34:59.099Z,55.80
2019-04-11T22:37:25.206Z,55.90
2019-04-11T22:39:51.264Z,55.60
2019-04-11T22:42:17.330Z,56.10
2019-04-11T22:44:43.375Z,55.50
2019-04-11T22:47:09.439Z,56.00
2019-04-11T22:49:36.755Z,56.50
2019-04-11T22:52:03.467Z,56.60
2019-04-11T22:54:29.517Z,56.70
2019-04-11T22:56:55.567Z,56.80
2019-04-11T22:59:21.631Z,57.00
2019-04-11T23:01:48.396Z,57.00
2019-04-11T23:04:16.827Z,57.10
2019-04-11T23:06:42.439Z,56.80
2019-04-11T23:09:08.587Z,57.40
2019-04-11T23:11:34.647Z,57.20
2019-04-11T23:14:00.697Z,57.60
2019-04-11T23:16:26.751Z,57.30
2019-04-11T23:18:52.799Z,58.00
2019-04-11T23:21:18.848Z,57.90
2019-04-11T23:23:44.926Z,57.70
2019-04-11T23:26:11.038Z,58.40
2019-04-11T23:28:37.124Z,58.60
2019-04-11T23:31:03.279Z,58.40
2019-04-11T23:33:29.353Z,59.00
2019-04-11T23:35:55.519Z,59.20
2019-04-11T23:38:23.795Z,59.70
2019-04-11T23:40:51.238Z,59.80
2019-04-11T23:43:19.836Z,60.30
2019-04-11T23:45:45.558Z,60.60
2019-04-11T23:48:11.619Z,60.70
2019-04-11T23:50:37.711Z,61.30
2019-04-11T23:53:03.759Z,61.40
